createdAt,value
2018-12-21T00:00:30.896Z,-0.70
2018-12-21T00:05:29.624Z,-0.60
2018-12-21T00:10:32.007Z,-0.60
2018-12-21T00:15:33.895Z,-0.60
2018-12-21T00:20:35.181Z,-0.50
2018-12-21T00:25:37.736Z,-0.40
2018-12-21T00:30:39.095Z,-0.40
2018-12-21T00:35:47.936Z,-0.30
2018-12-21T00:40:55.895Z,-0.30
2018-12-21T00:46:01.949Z,-0.10
2018-12-21T00:48:31.784Z,-0.30
2018-12-21T00:53:34.615Z,-0.30
2018-12-21T00:58:34.192Z,-0.30
2018-12-21T01:01:06.616Z,-0.10
2018-12-21T01:06:06.656Z,-0.10
2018-12-21T01:11:05.806Z,0.00
2018-12-21T01:13:38.922Z,0.00
2018-12-21T01:18:41.741Z,0.10
2018-12-21T01:23:42.155Z,0.10
2018-12-21T01:28:39.216Z,0.10
2018-12-21T01:33:37.819Z,0.10
2018-12-21T01:38:36.106Z,0.10
2018-12-21T01:43:34.655Z,0.10
2018-12-21T01:48:34.906Z,0.30
2018-12-21T01:53:36.575Z,0.30
2018-12-21T01:58:34.224Z,0.20
2018-12-21T02:03:31.377Z,0.20
2018-12-21T02:08:27.616Z,0.10
2018-12-21T02:13:33.187Z,0.20
2018-12-21T02:18:34.575Z,0.10
2018-12-21T02:23:32.255Z,0.10
2018-12-21T02:28:29.415Z,0.10
2018-12-21T02:33:26.537Z,0.10
2018-12-21T02:38:28.302Z,0.00
2018-12-21T02:43:28.636Z,0.00
2018-12-21T02:48:32.304Z,0.10
2018-12-21T02:53:29.096Z,0.10
2018-12-21T02:58:26.186Z,0.10
2018-12-21T03:03:23.496Z,0.20
2018-12-21T03:08:26.015Z,0.10
2018-12-21T03:13:22.870Z,0.20
2018-12-21T03:18:21.222Z,0.20
2018-12-21T03:23:18.416Z,0.20
2018-12-21T03:28:16.983Z,0.20
2018-12-21T03:33:14.302Z,0.20
2018-12-21T03:38:11.383Z,0.20
2018-12-21T03:43:14.264Z,0.30
2018-12-21T03:48:15.455Z,0.40
2018-12-21T03:53:18.554Z,0.40
2018-12-21T03:58:17.421Z,0.40
2018-12-21T04:03:15.015Z,0.30
2018-12-21T04:08:16.667Z,0.40
2018-12-21T04:13:14.226Z,0.40
2018-12-21T04:18:10.459Z,0.40
2018-12-21T04:23:15.822Z,0.50
2018-12-21T04:28:13.347Z,0.50
2018-12-21T04:33:15.896Z,0.50
2018-12-21T04:35:46.007Z,0.60
2018-12-21T04:40:49.823Z,0.60
2018-12-21T04:45:47.225Z,0.50
2018-12-21T04:50:43.775Z,0.60
2018-12-21T04:55:41.141Z,0.50
2018-12-21T05:00:44.349Z,0.60
2018-12-21T05:05:41.657Z,0.60
2018-12-21T05:10:43.382Z,0.70
2018-12-21T05:15:40.936Z,0.60
2018-12-21T05:20:43.424Z,0.60
2018-12-21T05:25:42.790Z,0.60
2018-12-21T05:30:46.105Z,0.60
2018-12-21T05:35:42.702Z,0.70
2018-12-21T05:40:39.599Z,0.70
2018-12-21T05:45:39.015Z,0.70
2018-12-21T05:50:45.135Z,0.80
2018-12-21T05:55:43.902Z,0.70
2018-12-21T06:00:45.217Z,0.80
2018-12-21T06:05:46.297Z,0.90
2018-12-21T06:10:42.982Z,0.90
2018-12-21T06:15:44.254Z,0.70
2018-12-21T06:20:42.215Z,0.80
2018-12-21T06:25:39.959Z,0.90
2018-12-21T06:30:36.735Z,1.10
2018-12-21T06:33:07.142Z,1.00
2018-12-21T06:38:09.097Z,0.90
2018-12-21T06:43:11.298Z,1.00
2018-12-21T06:48:10.268Z,1.10
2018-12-21T06:53:17.965Z,1.00
2018-12-21T06:55:47.232Z,1.10
2018-12-21T07:00:49.941Z,1.00
2018-12-21T07:05:52.418Z,1.00
2018-12-21T07:10:50.096Z,1.10
2018-12-21T07:15:52.218Z,1.00
2018-12-21T07:20:50.059Z,0.90
2018-12-21T07:25:49.306Z,1.00
2018-12-21T07:30:46.896Z,1.00
2018-12-21T07:35:43.895Z,1.00
2018-12-21T07:40:40.103Z,1.00
2018-12-21T07:45:42.456Z,1.00
2018-12-21T07:50:40.576Z,1.10
2018-12-21T07:55:37.403Z,1.10
2018-12-21T08:00:34.176Z,1.10
2018-12-21T08:05:30.058Z,1.20
2018-12-21T08:10:32.648Z,1.20
2018-12-21T08:15:34.144Z,1.30
2018-12-21T08:20:35.607Z,1.40
2018-12-21T08:25:33.375Z,1.50
2018-12-21T08:30:30.502Z,1.40
2018-12-21T08:33:01.143Z,1.40
2018-12-21T08:38:05.415Z,1.30
2018-12-21T08:43:03.176Z,1.30
2018-12-21T08:48:05.465Z,1.30
2018-12-21T08:53:03.017Z,1.40
2018-12-21T08:58:03.857Z,1.40
2018-12-21T09:03:06.063Z,1.30
2018-12-21T09:08:07.840Z,1.40
2018-12-21T09:13:05.423Z,1.40
2018-12-21T09:18:04.298Z,1.40
2018-12-21T09:23:01.111Z,1.50
2018-12-21T09:27:58.642Z,1.60
2018-12-21T09:32:55.056Z,1.70
2018-12-21T09:37:56.176Z,1.70
2018-12-21T09:42:53.496Z,1.70
2018-12-21T09:45:23.535Z,1.60
2018-12-21T09:50:25.695Z,1.80
2018-12-21T09:55:24.723Z,1.80
2018-12-21T10:00:27.618Z,2.00
2018-12-21T10:05:25.341Z,1.80
2018-12-21T10:10:27.368Z,1.60
2018-12-21T10:15:24.853Z,1.70
2018-12-21T10:20:27.354Z,1.80
2018-12-21T10:25:26.214Z,1.60
2018-12-21T10:30:27.188Z,1.60
2018-12-21T10:35:28.386Z,1.70
2018-12-21T10:40:25.955Z,1.50
2018-12-21T10:45:28.375Z,1.70
2018-12-21T10:50:31.990Z,1.60
2018-12-21T10:55:36.137Z,1.70
2018-12-21T11:00:37.855Z,1.70
2018-12-21T11:05:35.378Z,1.60
2018-12-21T11:10:33.219Z,1.60
2018-12-21T11:15:31.577Z,1.60
2018-12-21T11:20:30.136Z,1.70
2018-12-21T11:25:32.735Z,1.60
2018-12-21T11:30:34.382Z,1.60
2018-12-21T11:35:35.376Z,1.70
2018-12-21T11:40:38.471Z,1.20
2018-12-21T11:45:36.095Z,1.00
2018-12-21T11:50:38.377Z,0.80
2018-12-21T11:55:42.383Z,0.90
2018-12-21T12:00:40.263Z,1.10
2018-12-21T12:05:41.583Z,1.30
2018-12-21T12:10:38.497Z,1.40
2018-12-21T12:15:36.863Z,1.40
2018-12-21T12:20:37.621Z,1.30
2018-12-21T12:25:40.417Z,1.30
2018-12-21T12:30:42.908Z,1.10
2018-12-21T12:35:44.895Z,1.00
2018-12-21T12:40:43.937Z,1.00
2018-12-21T12:45:41.536Z,0.90
2018-12-21T12:50:43.816Z,0.90
2018-12-21T12:55:45.016Z,0.90
2018-12-21T13:00:42.624Z,0.90
2018-12-21T13:05:39.559Z,1.00
2018-12-21T13:10:41.945Z,1.00
2018-12-21T13:15:45.264Z,0.90
2018-12-21T13:20:45.627Z,0.90
2018-12-21T13:25:43.136Z,1.00
2018-12-21T13:30:44.546Z,1.00
2018-12-21T13:35:44.895Z,0.90
2018-12-21T13:40:42.651Z,1.00
2018-12-21T13:45:39.555Z,0.90
2018-12-21T13:50:36.236Z,0.90
2018-12-21T13:55:33.223Z,0.90
2018-12-21T14:00:37.546Z,0.90
2018-12-21T14:05:35.452Z,0.80
2018-12-21T14:10:36.502Z,0.70
2018-12-21T14:15:38.856Z,0.80
2018-12-21T14:20:41.375Z,0.80
2018-12-21T14:25:38.535Z,0.70
2018-12-21T14:30:36.261Z,0.80
2018-12-21T14:35:39.016Z,0.70
2018-12-21T14:40:40.696Z,0.80
2018-12-21T14:45:43.746Z,0.70
2018-12-21T14:50:41.508Z,0.70
2018-12-21T14:55:38.243Z,0.80
2018-12-21T15:00:35.661Z,0.80
2018-12-21T15:05:40.135Z,0.90
2018-12-21T15:10:41.537Z,0.90
2018-12-21T15:15:38.864Z,0.80
2018-12-21T15:20:36.463Z,0.80
2018-12-21T15:25:33.463Z,0.70
2018-12-21T15:30:36.816Z,0.70
2018-12-21T15:35:34.419Z,0.70
2018-12-21T15:40:31.815Z,0.70
2018-12-21T15:45:29.175Z,0.70
2018-12-21T15:50:27.933Z,0.70
2018-12-21T15:55:26.415Z,0.80
2018-12-21T16:00:29.657Z,0.70
2018-12-21T16:03:07.263Z,0.80
2018-12-21T16:05:49.535Z,0.80
2018-12-21T16:10:49.377Z,0.70
2018-12-21T16:15:48.693Z,0.70
2018-12-21T16:20:49.735Z,0.70
2018-12-21T16:25:46.581Z,0.70
2018-12-21T16:30:44.024Z,0.80
2018-12-21T16:35:40.959Z,0.70
2018-12-21T16:40:38.497Z,0.70
2018-12-21T16:45:36.097Z,0.70
2018-12-21T16:50:38.097Z,0.70
2018-12-21T16:55:35.575Z,0.70
2018-12-21T17:00:38.663Z,0.50
2018-12-21T17:05:40.255Z,0.50
2018-12-21T17:10:37.172Z,0.60
2018-12-21T17:15:36.335Z,0.70
2018-12-21T17:20:39.896Z,0.70
2018-12-21T17:25:41.879Z,0.90
2018-12-21T17:30:38.700Z,0.90
2018-12-21T17:35:37.454Z,0.90
2018-12-21T17:38:07.657Z,0.90
2018-12-21T17:43:10.655Z,0.90
2018-12-21T17:48:07.575Z,0.80
2018-12-21T17:53:05.937Z,0.80
2018-12-21T17:58:08.617Z,0.90
2018-12-21T18:03:05.460Z,0.80
2018-12-21T18:08:09.095Z,0.90
2018-12-21T18:13:11.223Z,0.70
2018-12-21T18:18:08.535Z,0.80
2018-12-21T18:23:09.063Z,0.80
2018-12-21T18:28:12.857Z,0.90
2018-12-21T18:33:10.948Z,0.90
2018-12-21T18:35:42.425Z,0.90
2018-12-21T18:38:13.784Z,0.90
2018-12-21T18:40:44.579Z,0.90
2018-12-21T18:45:46.215Z,0.80
2018-12-21T18:50:48.464Z,0.90
2018-12-21T18:55:45.257Z,0.90
2018-12-21T19:00:46.375Z,0.90
2018-12-21T19:05:43.295Z,0.90
2018-12-21T19:10:42.224Z,0.90
2018-12-21T19:15:45.224Z,1.00
2018-12-21T19:20:47.655Z,0.80
2018-12-21T19:25:45.223Z,0.80
2018-12-21T19:30:43.155Z,1.10
2018-12-21T19:35:41.440Z,1.00
2018-12-21T19:40:43.219Z,0.80
2018-12-21T19:45:41.622Z,0.90
2018-12-21T19:50:39.336Z,1.00
2018-12-21T19:55:42.062Z,1.00
2018-12-21T20:00:45.135Z,1.10
2018-12-21T20:05:43.139Z,1.10
2018-12-21T20:10:41.220Z,1.10
2018-12-21T20:15:39.497Z,1.10
2018-12-21T20:20:41.256Z,1.10
2018-12-21T20:25:43.070Z,1.10
2018-12-21T20:30:46.185Z,1.10
2018-12-21T20:35:51.098Z,1.20
2018-12-21T20:40:50.137Z,0.90
2018-12-21T20:45:48.462Z,1.00
2018-12-21T20:50:47.705Z,1.00
2018-12-21T20:55:49.333Z,1.00
2018-12-21T21:00:47.105Z,0.90
2018-12-21T21:05:46.264Z,0.90
2018-12-21T21:10:45.616Z,1.00
2018-12-21T21:15:48.096Z,0.90
2018-12-21T21:20:50.577Z,0.90
2018-12-21T21:25:49.305Z,1.00
2018-12-21T21:30:47.144Z,1.10
2018-12-21T21:35:49.409Z,1.20
2018-12-21T21:40:47.776Z,1.10
2018-12-21T21:45:44.816Z,1.20
2018-12-21T21:50:41.539Z,1.00
2018-12-21T21:55:38.864Z,1.00
2018-12-21T22:00:35.616Z,0.90
2018-12-21T22:03:05.811Z,0.80
2018-12-21T22:05:37.263Z,0.60
2018-12-21T22:08:07.529Z,0.60
2018-12-21T22:13:10.057Z,0.60
2018-12-21T22:18:07.733Z,0.50
2018-12-21T22:23:05.371Z,0.70
2018-12-21T22:28:09.059Z,0.60
2018-12-21T22:33:06.270Z,0.80
2018-12-21T22:35:36.040Z,0.70
2018-12-21T22:40:37.133Z,0.70
2018-12-21T22:45:34.171Z,0.90
2018-12-21T22:50:30.879Z,0.90
2018-12-21T22:55:28.137Z,0.80
2018-12-21T23:00:28.441Z,0.70
2018-12-21T23:05:26.731Z,0.70
2018-12-21T23:07:56.209Z,0.80
2018-12-21T23:12:58.019Z,0.80
2018-12-21T23:17:54.134Z,0.80
2018-12-21T23:22:55.256Z,0.80
2018-12-21T23:27:52.491Z,0.70
2018-12-21T23:32:49.371Z,0.70
2018-12-21T23:37:46.851Z,0.80
2018-12-21T23:42:50.212Z,0.70
2018-12-21T23:47:52.531Z,0.70
2018-12-21T23:52:55.195Z,0.70
2018-12-21T23:57:56.495Z,1.00
